sensor_id;sensor_type;location;lat;lon;timestamp;pressure;altitude;pressure_sealevel;temperature;humidity
39793;BME280;26080;42.264;24.536;2023-07-13T00:00:53;99348.94;;;22.81;100.00
39793;BME280;26080;42.264;24.536;2023-07-13T00:03:18;99354.63;;;22.68;100.00
39793;BME280;26080;42.264;24.536;2023-07-13T00:05:44;99355.50;;;22.59;100.00
39793;BME280;26080;42.264;24.536;2023-07-13T00:08:09;99344.28;;;22.56;100.00
39793;BME280;26080;42.264;24.536;2023-07-13T00:10:42;99340.38;;;22.50;100.00
39793;BME280;26080;42.264;24.536;2023-07-13T00:13:09;99344.44;;;22.54;100.00
39793;BME280;26080;42.264;24.536;2023-07-13T00:15:35;99338.00;;;22.74;100.00
39793;BME280;26080;42.264;24.536;2023-07-13T00:18:01;99297.22;;;22.55;100.00
39793;BME280;26080;42.264;24.536;2023-07-13T00:20:26;99323.72;;;22.66;100.00
39793;BME280;26080;42.264;24.536;2023-07-13T00:22:52;99320.06;;;22.67;100.00
39793;BME280;26080;42.264;24.536;2023-07-13T00:25:19;99319.88;;;22.78;100.00
39793;BME280;26080;42.264;24.536;2023-07-13T00:27:47;99334.84;;;22.89;100.00
39793;BME280;26080;42.264;24.536;2023-07-13T00:30:14;99327.28;;;22.84;100.00
39793;BME280;26080;42.264;24.536;2023-07-13T00:32:40;99319.75;;;22.97;100.00
39793;BME280;26080;42.264;24.536;2023-07-13T00:35:06;99318.47;;;23.01;100.00
39793;BME280;26080;42.264;24.536;2023-07-13T00:37:32;99316.78;;;23.00;100.00
39793;BME280;26080;42.264;24.536;2023-07-13T00:39:59;99313.13;;;23.01;100.00
39793;BME280;26080;42.264;24.536;2023-07-13T00:42:25;99324.72;;;22.92;100.00
39793;BME280;26080;42.264;24.536;2023-07-13T00:47:45;99319.81;;;22.88;100.00
39793;BME280;26080;42.264;24.536;2023-07-13T00:50:12;99313.44;;;22.98;100.00
39793;BME280;26080;42.264;24.536;2023-07-13T00:52:44;99315.56;;;22.95;100.00
39793;BME280;26080;42.264;24.536;2023-07-13T00:55:11;99308.28;;;22.87;100.00
39793;BME280;26080;42.264;24.536;2023-07-13T00:57:38;99286.69;;;22.81;100.00
39793;BME280;26080;42.264;24.536;2023-07-13T01:00:05;99313.78;;;22.86;100.00
39793;BME280;26080;42.264;24.536;2023-07-13T01:02:35;99318.63;;;23.00;100.00
39793;BME280;26080;42.264;24.536;2023-07-13T01:05:10;99312.28;;;23.01;100.00
39793;BME280;26080;42.264;24.536;2023-07-13T01:07:36;99314.94;;;23.01;100.00
39793;BME280;26080;42.264;24.536;2023-07-13T01:10:02;99282.53;;;22.68;100.00
39793;BME280;26080;42.264;24.536;2023-07-13T01:12:28;99309.03;;;22.80;100.00
39793;BME280;26080;42.264;24.536;2023-07-13T01:15:01;99307.19;;;22.80;100.00
39793;BME280;26080;42.264;24.536;2023-07-13T01:17:28;99311.28;;;22.74;100.00
39793;BME280;26080;42.264;24.536;2023-07-13T01:19:54;99276.56;;;22.57;100.00
39793;BME280;26080;42.264;24.536;2023-07-13T01:22:20;99313.78;;;22.86;100.00
39793;BME280;26080;42.264;24.536;2023-07-13T01:24:50;99311.22;;;22.94;100.00
39793;BME280;26080;42.264;24.536;2023-07-13T01:27:20;99306.19;;;22.91;100.00
39793;BME280;26080;42.264;24.536;2023-07-13T01:29:46;99299.16;;;22.90;100.00
39793;BME280;26080;42.264;24.536;2023-07-13T01:32:16;99303.22;;;22.94;100.00
39793;BME280;26080;42.264;24.536;2023-07-13T01:34:42;99299.28;;;22.88;100.00
39793;BME280;26080;42.264;24.536;2023-07-13T01:37:10;99310.19;;;22.77;100.00
39793;BME280;26080;42.264;24.536;2023-07-13T01:39:36;99312.44;;;22.72;100.00
39793;BME280;26080;42.264;24.536;2023-07-13T01:42:03;99299.38;;;22.51;100.00
39793;BME280;26080;42.264;24.536;2023-07-13T01:44:28;99309.53;;;22.65;100.00
39793;BME280;26080;42.264;24.536;2023-07-13T01:46:54;99322.94;;;22.56;100.00
39793;BME280;26080;42.264;24.536;2023-07-13T01:49:19;99318.47;;;22.46;100.00
39793;BME280;26080;42.264;24.536;2023-07-13T01:51:44;99304.19;;;22.38;100.00
39793;BME280;26080;42.264;24.536;2023-07-13T01:54:10;99317.34;;;22.49;100.00
39793;BME280;26080;42.264;24.536;2023-07-13T01:56:35;99316.22;;;22.52;100.00
39793;BME280;26080;42.264;24.536;2023-07-13T01:59:01;99323.06;;;22.54;100.00
39793;BME280;26080;42.264;24.536;2023-07-13T02:01:26;99322.72;;;22.39;100.00
39793;BME280;26080;42.264;24.536;2023-07-13T02:03:52;99328.50;;;22.35;100.00
39793;BME280;26080;42.264;24.536;2023-07-13T02:06:17;99332.78;;;22.45;100.00
39793;BME280;26080;42.264;24.536;2023-07-13T02:08:43;99330.88;;;22.38;100.00
39793;BME280;26080;42.264;24.536;2023-07-13T02:11:08;99331.44;;;22.32;100.00
39793;BME280;26080;42.264;24.536;2023-07-13T02:13:34;99323.66;;;22.21;100.00
39793;BME280;26080;42.264;24.536;2023-07-13T02:16:00;99332.72;;;22.37;100.00
39793;BME280;26080;42.264;24.536;2023-07-13T02:18:25;99337.41;;;22.53;100.00
39793;BME280;26080;42.264;24.536;2023-07-13T02:20:52;99333.06;;;22.52;100.00
39793;BME280;26080;42.264;24.536;2023-07-13T02:23:17;99297.19;;;22.37;100.00
39793;BME280;26080;42.264;24.536;2023-07-13T02:25:45;99323.91;;;22.55;100.00
39793;BME280;26080;42.264;24.536;2023-07-13T02:28:11;99305.22;;;22.27;100.00
39793;BME280;26080;42.264;24.536;2023-07-13T02:30:36;99327.16;;;22.21;100.00
39793;BME280;26080;42.264;24.536;2023-07-13T02:33:03;99332.75;;;22.18;100.00
39793;BME280;26080;42.264;24.536;2023-07-13T02:35:29;99326.19;;;22.12;100.00
39793;BME280;26080;42.264;24.536;2023-07-13T02:37:54;99333.44;;;22.30;100.00
39793;BME280;26080;42.264;24.536;2023-07-13T02:40:20;99341.91;;;22.15;100.00
39793;BME280;26080;42.264;24.536;2023-07-13T02:42:45;99338.56;;;21.94;100.00
39793;BME280;26080;42.264;24.536;2023-07-13T02:45:11;99332.56;;;21.82;100.00
39793;BME280;26080;42.264;24.536;2023-07-13T02:47:40;99332.16;;;21.68;100.00
39793;BME280;26080;42.264;24.536;2023-07-13T02:50:06;99339.28;;;21.86;100.00
39793;BME280;26080;42.264;24.536;2023-07-13T02:52:32;99343.63;;;21.78;100.00
39793;BME280;26080;42.264;24.536;2023-07-13T02:54:57;99335.81;;;21.57;100.00
39793;BME280;26080;42.264;24.536;2023-07-13T02:57:23;99357.69;;;21.41;100.00
39793;BME280;26080;42.264;24.536;2023-07-13T02:59:48;99351.47;;;21.21;100.00
39793;BME280;26080;42.264;24.536;2023-07-13T03:02:15;99358.06;;;21.17;100.00
39793;BME280;26080;42.264;24.536;2023-07-13T03:04:41;99341.22;;;20.97;100.00
39793;BME280;26080;42.264;24.536;2023-07-13T03:07:06;99345.88;;;21.15;100.00
39793;BME280;26080;42.264;24.536;2023-07-13T03:09:35;99353.72;;;21.16;100.00
39793;BME280;26080;42.264;24.536;2023-07-13T03:12:01;99352.31;;;21.22;100.00
39793;BME280;26080;42.264;24.536;2023-07-13T03:14:26;99342.22;;;21.16;100.00
39793;BME280;26080;42.264;24.536;2023-07-13T03:16:52;99345.88;;;21.15;100.00
39793;BME280;26080;42.264;24.536;2023-07-13T03:19:18;99343.34;;;21.23;100.00
39793;BME280;26080;42.264;24.536;2023-07-13T03:21:44;99340.16;;;21.29;100.00
39793;BME280;26080;42.264;24.536;2023-07-13T03:24:10;99322.22;;;21.31;100.00
39793;BME280;26080;42.264;24.536;2023-07-13T03:26:35;99336.38;;;21.41;100.00
39793;BME280;26080;42.264;24.536;2023-07-13T03:29:01;99337.09;;;21.43;100.00
39793;BME280;26080;42.264;24.536;2023-07-13T03:31:29;99340.00;;;21.59;100.00
39793;BME280;26080;42.264;24.536;2023-07-13T03:33:56;99340.84;;;21.70;100.00
39793;BME280;26080;42.264;24.536;2023-07-13T03:36:23;99345.00;;;22.21;100.00
39793;BME280;26080;42.264;24.536;2023-07-13T03:38:51;99347.97;;;22.45;100.00
39793;BME280;26080;42.264;24.536;2023-07-13T03:41:18;99349.38;;;22.49;100.00
39793;BME280;26080;42.264;24.536;2023-07-13T03:43:44;99355.88;;;22.37;100.00
39793;BME280;26080;42.264;24.536;2023-07-13T03:46:09;99358.56;;;22.37;100.00
39793;BME280;26080;42.264;24.536;2023-07-13T03:48:35;99364.09;;;22.53;100.00
39793;BME280;26080;42.264;24.536;2023-07-13T03:51:01;99362.50;;;22.60;100.00
39793;BME280;26080;42.264;24.536;2023-07-13T03:53:26;99365.81;;;22.72;100.00
39793;BME280;26080;42.264;24.536;2023-07-13T03:55:52;99359.94;;;22.68;100.00
39793;BME280;26080;42.264;24.536;2023-07-13T03:58:40;99350.28;;;22.95;100.00
39793;BME280;26080;42.264;24.536;2023-07-13T04:01:08;99356.34;;;23.68;100.00
39793;BME280;26080;42.264;24.536;2023-07-13T04:03:34;99366.00;;;24.57;100.00
39793;BME280;26080;42.264;24.536;2023-07-13T04:06:01;99371.63;;;25.30;99.42
39793;BME280;26080;42.264;24.536;2023-07-13T04:08:28;99373.03;;;26.07;98.96
39793;BME280;26080;42.264;24.536;2023-07-13T04:10:54;99347.44;;;26.60;91.52
39793;BME280;26080;42.264;24.536;2023-07-13T04:13:20;99361.44;;;27.18;86.52
39793;BME280;26080;42.264;24.536;2023-07-13T04:15:45;99362.00;;;27.59;83.76
39793;BME280;26080;42.264;24.536;2023-07-13T04:18:11;99369.00;;;27.68;84.12
39793;BME280;26080;42.264;24.536;2023-07-13T04:20:37;99332.16;;;28.06;81.40
39793;BME280;26080;42.264;24.536;2023-07-13T04:23:03;99353.00;;;28.56;77.91
39793;BME280;26080;42.264;24.536;2023-07-13T04:25:29;99366.00;;;28.97;77.71
39793;BME280;26080;42.264;24.536;2023-07-13T04:27:54;99361.84;;;29.73;75.18
39793;BME280;26080;42.264;24.536;2023-07-13T04:30:20;99348.84;;;29.41;71.91
39793;BME280;26080;42.264;24.536;2023-07-13T04:32:46;99364.09;;;29.91;71.68
39793;BME280;26080;42.264;24.536;2023-07-13T04:35:11;99372.13;;;30.06;69.64
39793;BME280;26080;42.264;24.536;2023-07-13T04:37:37;99369.03;;;30.72;68.60
39793;BME280;26080;42.264;24.536;2023-07-13T04:40:03;99366.25;;;31.06;68.17
39793;BME280;26080;42.264;24.536;2023-07-13T04:42:29;99374.91;;;31.30;65.35
39793;BME280;26080;42.264;24.536;2023-07-13T04:44:55;99364.53;;;31.40;65.51
39793;BME280;26080;42.264;24.536;2023-07-13T04:47:20;99374.47;;;31.26;65.15
39793;BME280;26080;42.264;24.536;2023-07-13T04:49:46;99347.31;;;31.94;61.16
39793;BME280;26080;42.264;24.536;2023-07-13T04:52:12;99369.06;;;32.71;59.59
39793;BME280;26080;42.264;24.536;2023-07-13T04:54:38;99368.91;;;33.18;57.40
39793;BME280;26080;42.264;24.536;2023-07-13T04:57:04;99369.19;;;33.41;55.77
39793;BME280;26080;42.264;24.536;2023-07-13T04:59:32;99356.56;;;33.60;55.38
39793;BME280;26080;42.264;24.536;2023-07-13T05:01:58;99357.41;;;34.10;53.21
39793;BME280;26080;42.264;24.536;2023-07-13T05:04:24;99348.53;;;33.97;52.83
39793;BME280;26080;42.264;24.536;2023-07-13T05:06:49;99366.59;;;34.53;52.15
39793;BME280;26080;42.264;24.536;2023-07-13T05:09:15;99370.25;;;35.01;50.68
39793;BME280;26080;42.264;24.536;2023-07-13T05:11:41;99379.97;;;35.57;46.97
39793;BME280;26080;42.264;24.536;2023-07-13T05:14:06;99375.88;;;35.78;48.43
39793;BME280;26080;42.264;24.536;2023-07-13T05:16:32;99384.06;;;35.90;44.98
39793;BME280;26080;42.264;24.536;2023-07-13T05:18:57;99383.25;;;35.89;45.91
39793;BME280;26080;42.264;24.536;2023-07-13T05:21:23;99367.03;;;36.30;44.17
39793;BME280;26080;42.264;24.536;2023-07-13T05:23:49;99377.88;;;35.83;45.67
39793;BME280;26080;42.264;24.536;2023-07-13T05:26:14;99377.34;;;35.93;44.95
39793;BME280;26080;42.264;24.536;2023-07-13T05:28:40;99373.81;;;35.50;46.62
39793;BME280;26080;42.264;24.536;2023-07-13T05:31:07;99375.41;;;35.40;46.39
39793;BME280;26080;42.264;24.536;2023-07-13T05:33:33;99363.03;;;34.95;47.28
39793;BME280;26080;42.264;24.536;2023-07-13T05:35:58;99369.34;;;34.71;48.69
39793;BME280;26080;42.264;24.536;2023-07-13T05:38:26;99371.50;;;33.69;52.79
39793;BME280;26080;42.264;24.536;2023-07-13T05:40:54;99375.03;;;33.00;56.26
39793;BME280;26080;42.264;24.536;2023-07-13T05:43:20;99376.56;;;32.69;56.84
39793;BME280;26080;42.264;24.536;2023-07-13T05:45:45;99383.69;;;32.57;60.06
39793;BME280;26080;42.264;24.536;2023-07-13T05:48:11;99383.53;;;32.12;62.94
39793;BME280;26080;42.264;24.536;2023-07-13T05:50:36;99383.75;;;32.04;61.18
39793;BME280;26080;42.264;24.536;2023-07-13T05:53:02;99372.88;;;31.71;65.30
39793;BME280;26080;42.264;24.536;2023-07-13T05:55:27;99386.13;;;31.33;64.79
39793;BME280;26080;42.264;24.536;2023-07-13T05:57:53;99381.97;;;31.31;66.19
39793;BME280;26080;42.264;24.536;2023-07-13T06:00:19;99385.31;;;31.26;66.18
39793;BME280;26080;42.264;24.536;2023-07-13T06:02:44;99391.50;;;31.20;64.45
39793;BME280;26080;42.264;24.536;2023-07-13T06:05:10;99395.28;;;31.32;63.41
39793;BME280;26080;42.264;24.536;2023-07-13T06:07:35;99396.16;;;31.46;60.53
39793;BME280;26080;42.264;24.536;2023-07-13T06:10:01;99397.38;;;31.37;62.43
39793;BME280;26080;42.264;24.536;2023-07-13T06:12:27;99396.50;;;31.23;63.48
39793;BME280;26080;42.264;24.536;2023-07-13T06:14:52;99387.31;;;31.17;64.96
39793;BME280;26080;42.264;24.536;2023-07-13T06:17:18;99390.22;;;31.16;63.91
39793;BME280;26080;42.264;24.536;2023-07-13T06:19:43;99392.03;;;31.02;64.90
39793;BME280;26080;42.264;24.536;2023-07-13T06:22:09;99375.47;;;30.71;65.26
39793;BME280;26080;42.264;24.536;2023-07-13T06:24:35;99381.31;;;30.74;65.05
39793;BME280;26080;42.264;24.536;2023-07-13T06:27:00;99379.47;;;30.47;63.50
39793;BME280;26080;42.264;24.536;2023-07-13T06:29:26;99385.72;;;30.47;66.17
39793;BME280;26080;42.264;24.536;2023-07-13T06:31:51;99382.50;;;30.30;68.47
39793;BME280;26080;42.264;24.536;2023-07-13T06:34:17;99378.28;;;30.28;69.23
39793;BME280;26080;42.264;24.536;2023-07-13T06:36:43;99374.13;;;30.25;66.69
39793;BME280;26080;42.264;24.536;2023-07-13T06:39:08;99372.72;;;30.29;63.91
39793;BME280;26080;42.264;24.536;2023-07-13T06:41:34;99371.00;;;30.28;61.29
39793;BME280;26080;42.264;24.536;2023-07-13T06:43:59;99356.41;;;30.16;63.06
39793;BME280;26080;42.264;24.536;2023-07-13T06:46:25;99373.00;;;30.13;66.32
39793;BME280;26080;42.264;24.536;2023-07-13T06:48:53;99369.41;;;30.06;61.71
39793;BME280;26080;42.264;24.536;2023-07-13T06:51:18;99369.91;;;29.95;63.47
39793;BME280;26080;42.264;24.536;2023-07-13T06:53:44;99366.38;;;29.94;60.85
39793;BME280;26080;42.264;24.536;2023-07-13T06:56:10;99375.84;;;30.05;60.74
39793;BME280;26080;42.264;24.536;2023-07-13T06:58:36;99359.25;;;30.08;63.37
39793;BME280;26080;42.264;24.536;2023-07-13T07:01:02;99359.28;;;30.15;63.48
39793;BME280;26080;42.264;24.536;2023-07-13T07:03:28;99348.56;;;30.28;62.84
39793;BME280;26080;42.264;24.536;2023-07-13T07:05:53;99361.97;;;30.43;61.12
39793;BME280;26080;42.264;24.536;2023-07-13T07:08:19;99357.78;;;30.33;59.97
39793;BME280;26080;42.264;24.536;2023-07-13T07:10:45;99351.97;;;30.36;57.79
39793;BME280;26080;42.264;24.536;2023-07-13T07:13:10;99355.78;;;30.49;62.78
39793;BME280;26080;42.264;24.536;2023-07-13T07:15:36;99366.25;;;30.58;61.15
39793;BME280;26080;42.264;24.536;2023-07-13T07:18:02;99360.47;;;30.33;60.91
39793;BME280;26080;42.264;24.536;2023-07-13T07:20:28;99370.75;;;30.51;63.40
39793;BME280;26080;42.264;24.536;2023-07-13T07:22:53;99345.75;;;30.43;61.78
39793;BME280;26080;42.264;24.536;2023-07-13T07:25:19;99366.03;;;30.60;63.27
39793;BME280;26080;42.264;24.536;2023-07-13T07:27:45;99362.97;;;30.63;60.17
39793;BME280;26080;42.264;24.536;2023-07-13T07:30:11;99359.50;;;30.82;58.43
39793;BME280;26080;42.264;24.536;2023-07-13T07:32:37;99363.91;;;30.96;61.03
39793;BME280;26080;42.264;24.536;2023-07-13T07:35:03;99352.53;;;31.01;59.04
39793;BME280;26080;42.264;24.536;2023-07-13T07:37:28;99337.16;;;31.15;58.25
39793;BME280;26080;42.264;24.536;2023-07-13T07:39:54;99348.66;;;31.30;58.44
39793;BME280;26080;42.264;24.536;2023-07-13T07:42:19;99348.25;;;31.33;57.30
39793;BME280;26080;42.264;24.536;2023-07-13T07:44:45;99347.84;;;31.36;55.50
39793;BME280;26080;42.264;24.536;2023-07-13T07:47:10;99307.63;;;31.13;54.49
39793;BME280;26080;42.264;24.536;2023-07-13T07:49:37;99339.34;;;31.39;56.86
39793;BME280;26080;42.264;24.536;2023-07-13T07:52:03;99340.16;;;31.40;55.48
39793;BME280;26080;42.264;24.536;2023-07-13T07:54:29;99331.22;;;31.39;55.26
39793;BME280;26080;42.264;24.536;2023-07-13T07:56:54;99314.56;;;31.42;54.01
39793;BME280;26080;42.264;24.536;2023-07-13T07:59:20;99319.38;;;31.53;55.38
39793;BME280;26080;42.264;24.536;2023-07-13T08:01:46;99319.13;;;31.62;52.42
39793;BME280;26080;42.264;24.536;2023-07-13T08:04:13;99325.41;;;31.56;52.72
39793;BME280;26080;42.264;24.536;2023-07-13T08:06:38;99322.69;;;31.62;52.44
39793;BME280;26080;42.264;24.536;2023-07-13T08:09:04;99320.00;;;31.69;52.93
39793;BME280;26080;42.264;24.536;2023-07-13T08:11:30;99320.84;;;31.89;52.41
39793;BME280;26080;42.264;24.536;2023-07-13T08:16:50;99299.41;;;31.94;52.14
39793;BME280;26080;42.264;24.536;2023-07-13T08:19:15;99314.97;;;32.12;48.07
39793;BME280;26080;42.264;24.536;2023-07-13T08:21:41;99312.47;;;32.24;49.61
39793;BME280;26080;42.264;24.536;2023-07-13T08:24:08;99304.56;;;32.29;47.61
39793;BME280;26080;42.264;24.536;2023-07-13T08:26:34;99308.28;;;32.34;47.11
39793;BME280;26080;42.264;24.536;2023-07-13T08:28:59;99302.03;;;32.34;48.26
39793;BME280;26080;42.264;24.536;2023-07-13T08:31:25;99299.69;;;32.44;45.73
39793;BME280;26080;42.264;24.536;2023-07-13T08:33:51;99284.31;;;32.38;47.79
39793;BME280;26080;42.264;24.536;2023-07-13T08:36:16;99300.22;;;32.72;48.17
39793;BME280;26080;42.264;24.536;2023-07-13T08:38:42;99281.44;;;32.78;47.18
39793;BME280;26080;42.264;24.536;2023-07-13T08:41:17;99293.03;;;32.98;48.73
39793;BME280;26080;42.264;24.536;2023-07-13T08:43:48;99261.78;;;32.89;45.92
39793;BME280;26080;42.264;24.536;2023-07-13T08:46:34;99299.81;;;33.14;44.93
39793;BME280;26080;42.264;24.536;2023-07-13T08:49:04;99302.97;;;33.11;45.04
39793;BME280;26080;42.264;24.536;2023-07-13T08:54:31;99302.66;;;33.25;42.60
39793;BME280;26080;42.264;24.536;2023-07-13T08:57:03;99299.50;;;33.28;44.57
39793;BME280;26080;42.264;24.536;2023-07-13T08:59:34;99294.00;;;33.42;43.97
39793;BME280;26080;42.264;24.536;2023-07-13T09:05:01;99283.84;;;33.62;42.52
39793;BME280;26080;42.264;24.536;2023-07-13T09:08:01;99283.25;;;33.60;43.28
39793;BME280;26080;42.264;24.536;2023-07-13T09:10:56;99277.59;;;33.62;38.72
39793;BME280;26080;42.264;24.536;2023-07-13T09:13:40;99269.25;;;33.81;38.49
39793;BME280;26080;42.264;24.536;2023-07-13T09:16:09;99265.22;;;33.91;38.89
39793;BME280;26080;42.264;24.536;2023-07-13T09:18:38;99255.19;;;33.91;40.83
39793;BME280;26080;42.264;24.536;2023-07-13T09:21:31;99253.91;;;33.94;39.87
39793;BME280;26080;42.264;24.536;2023-07-13T09:24:06;99258.75;;;34.10;40.45
39793;BME280;26080;42.264;24.536;2023-07-13T09:26:40;99249.63;;;34.23;40.62
39793;BME280;26080;42.264;24.536;2023-07-13T09:29:29;99241.69;;;34.21;36.76
39793;BME280;26080;42.264;24.536;2023-07-13T09:31:57;99244.41;;;34.39;39.60
39793;BME280;26080;42.264;24.536;2023-07-13T09:34:25;99236.09;;;34.53;37.94
39793;BME280;26080;42.264;24.536;2023-07-13T09:36:51;99229.75;;;34.59;37.97
39793;BME280;26080;42.264;24.536;2023-07-13T09:39:29;99235.69;;;34.67;36.77
39793;BME280;26080;42.264;24.536;2023-07-13T09:42:15;99229.22;;;34.68;36.10
39793;BME280;26080;42.264;24.536;2023-07-13T09:47:25;99225.53;;;34.93;32.99
39793;BME280;26080;42.264;24.536;2023-07-13T09:50:01;99222.13;;;34.97;33.17
39793;BME280;26080;42.264;24.536;2023-07-13T09:52:45;99215.47;;;34.93;35.08
39793;BME280;26080;42.264;24.536;2023-07-13T09:55:32;99206.75;;;35.03;34.40
39793;BME280;26080;42.264;24.536;2023-07-13T09:58:20;99202.09;;;34.92;34.67
39793;BME280;26080;42.264;24.536;2023-07-13T10:01:14;99215.75;;;35.03;36.78
39793;BME280;26080;42.264;24.536;2023-07-13T10:03:54;99196.69;;;35.03;35.33
39793;BME280;26080;42.264;24.536;2023-07-13T10:06:21;99198.69;;;34.96;35.60
39793;BME280;26080;42.264;24.536;2023-07-13T10:08:48;99202.00;;;34.98;35.03
39793;BME280;26080;42.264;24.536;2023-07-13T10:11:39;99204.84;;;35.03;36.04
39793;BME280;26080;42.264;24.536;2023-07-13T10:14:10;99204.84;;;35.03;35.54
39793;BME280;26080;42.264;24.536;2023-07-13T10:16:36;99207.69;;;35.09;36.00
39793;BME280;26080;42.264;24.536;2023-07-13T10:22:00;99190.13;;;35.23;35.56
39793;BME280;26080;42.264;24.536;2023-07-13T10:24:28;99190.50;;;35.50;33.20
39793;BME280;26080;42.264;24.536;2023-07-13T10:29:32;99177.13;;;35.60;35.29
39793;BME280;26080;42.264;24.536;2023-07-13T10:32:00;99184.59;;;35.65;33.05
39793;BME280;26080;42.264;24.536;2023-07-13T10:34:26;99168.44;;;35.75;31.80
39793;BME280;26080;42.264;24.536;2023-07-13T10:36:52;99173.19;;;35.91;31.71
39793;BME280;26080;42.264;24.536;2023-07-13T10:39:24;99168.09;;;35.95;32.96
39793;BME280;26080;42.264;24.536;2023-07-13T10:41:58;99157.19;;;36.06;33.72
39793;BME280;26080;42.264;24.536;2023-07-13T10:44:28;99147.47;;;35.99;35.09
39793;BME280;26080;42.264;24.536;2023-07-13T10:47:11;99135.38;;;36.06;31.23
39793;BME280;26080;42.264;24.536;2023-07-13T10:49:39;99143.69;;;36.28;32.26
39793;BME280;26080;42.264;24.536;2023-07-13T10:55:04;99131.94;;;36.39;31.05
39793;BME280;26080;42.264;24.536;2023-07-13T10:57:42;99132.78;;;36.40;31.86
39793;BME280;26080;42.264;24.536;2023-07-13T11:00:16;99135.19;;;36.36;32.32
39793;BME280;26080;42.264;24.536;2023-07-13T11:02:42;99121.22;;;36.33;31.39
39793;BME280;26080;42.264;24.536;2023-07-13T11:07:55;99105.44;;;36.23;31.98
39793;BME280;26080;42.264;24.536;2023-07-13T11:13:37;99121.97;;;36.45;31.93
39793;BME280;26080;42.264;24.536;2023-07-13T11:16:13;99110.31;;;36.33;31.57
39793;BME280;26080;42.264;24.536;2023-07-13T11:21:29;99110.59;;;36.48;30.32
39793;BME280;26080;42.264;24.536;2023-07-13T11:24:12;99108.38;;;36.62;29.65
39793;BME280;26080;42.264;24.536;2023-07-13T11:26:50;99108.38;;;36.62;29.62
39793;BME280;26080;42.264;24.536;2023-07-13T11:29:33;99111.34;;;36.60;29.42
39793;BME280;26080;42.264;24.536;2023-07-13T11:32:21;99106.16;;;36.75;27.28
39793;BME280;26080;42.264;24.536;2023-07-13T11:34:48;99099.31;;;36.90;28.09
39793;BME280;26080;42.264;24.536;2023-07-13T11:37:16;99096.16;;;36.98;29.08
39793;BME280;26080;42.264;24.536;2023-07-13T11:39:46;99091.88;;;37.02;28.05
39793;BME280;26080;42.264;24.536;2023-07-13T11:42:14;99092.84;;;36.96;28.28
39793;BME280;26080;42.264;24.536;2023-07-13T11:44:48;99087.00;;;37.04;28.52
39793;BME280;26080;42.264;24.536;2023-07-13T11:47:18;99089.22;;;37.07;29.72
39793;BME280;26080;42.264;24.536;2023-07-13T11:49:49;99094.25;;;37.15;26.57
39793;BME280;26080;42.264;24.536;2023-07-13T11:52:21;99086.69;;;37.56;24.12
39793;BME280;26080;42.264;24.536;2023-07-13T11:54:56;99082.63;;;37.80;24.52
39793;BME280;26080;42.264;24.536;2023-07-13T11:57:33;99086.16;;;38.03;24.96
39793;BME280;26080;42.264;24.536;2023-07-13T12:00:09;99067.88;;;38.03;25.59
39793;BME280;26080;42.264;24.536;2023-07-13T12:02:43;99063.34;;;37.92;24.00
39793;BME280;26080;42.264;24.536;2023-07-13T12:05:13;99065.53;;;38.17;23.12
39793;BME280;26080;42.264;24.536;2023-07-13T12:07:40;99065.81;;;38.15;22.82
39793;BME280;26080;42.264;24.536;2023-07-13T12:12:48;99063.44;;;37.97;23.50
39793;BME280;26080;42.264;24.536;2023-07-13T12:15:14;99051.94;;;38.22;22.18
39793;BME280;26080;42.264;24.536;2023-07-13T12:17:40;99051.53;;;38.35;21.94
39793;BME280;26080;42.264;24.536;2023-07-13T12:20:26;99054.94;;;38.47;20.90
39793;BME280;26080;42.264;24.536;2023-07-13T12:22:53;99042.97;;;38.53;20.92
39793;BME280;26080;42.264;24.536;2023-07-13T12:25:19;99050.00;;;38.49;19.48
39793;BME280;26080;42.264;24.536;2023-07-13T12:27:49;99037.97;;;38.50;19.47
39793;BME280;26080;42.264;24.536;2023-07-13T12:33:10;99033.66;;;38.55;19.35
39793;BME280;26080;42.264;24.536;2023-07-13T12:36:00;99030.66;;;38.56;19.00
39793;BME280;26080;42.264;24.536;2023-07-13T12:38:27;99036.41;;;38.55;20.08
39793;BME280;26080;42.264;24.536;2023-07-13T12:40:53;99035.75;;;38.42;20.43
39793;BME280;26080;42.264;24.536;2023-07-13T12:43:20;99028.22;;;38.60;20.55
39793;BME280;26080;42.264;24.536;2023-07-13T12:46:04;99035.72;;;38.69;20.07
39793;BME280;26080;42.264;24.536;2023-07-13T12:48:41;99021.75;;;38.66;19.43
39793;BME280;26080;42.264;24.536;2023-07-13T12:51:11;99027.50;;;38.69;20.08
39793;BME280;26080;42.264;24.536;2023-07-13T12:53:43;99025.03;;;38.68;19.33
39793;BME280;26080;42.264;24.536;2023-07-13T12:56:24;99016.03;;;38.72;18.95
39793;BME280;26080;42.264;24.536;2023-07-13T12:58:58;99026.81;;;38.84;18.93
39793;BME280;26080;42.264;24.536;2023-07-13T13:01:29;99015.47;;;38.70;20.46
39793;BME280;26080;42.264;24.536;2023-07-13T13:03:55;99017.66;;;38.68;20.28
39793;BME280;26080;42.264;24.536;2023-07-13T13:06:27;99015.75;;;38.69;20.38
39793;BME280;26080;42.264;24.536;2023-07-13T13:08:55;99009.47;;;38.73;21.81
39793;BME280;26080;42.264;24.536;2023-07-13T13:11:23;99001.28;;;38.78;19.24
39793;BME280;26080;42.264;24.536;2023-07-13T13:13:50;98996.69;;;38.84;19.25
39793;BME280;26080;42.264;24.536;2023-07-13T13:18:50;98988.28;;;38.64;21.63
39793;BME280;26080;42.264;24.536;2023-07-13T13:21:17;98985.41;;;38.43;20.91
39793;BME280;26080;42.264;24.536;2023-07-13T13:23:43;98986.25;;;38.44;21.01
39793;BME280;26080;42.264;24.536;2023-07-13T13:26:14;98980.03;;;38.53;19.10
39793;BME280;26080;42.264;24.536;2023-07-13T13:28:44;98982.25;;;38.62;19.49
39793;BME280;26080;42.264;24.536;2023-07-13T13:31:10;98993.78;;;38.64;19.48
39793;BME280;26080;42.264;24.536;2023-07-13T13:33:39;98984.00;;;38.68;19.27